createdAt,value
2019-06-20T02:00:50.281Z,4.00
2019-06-20T02:01:50.278Z,4.00
2019-06-20T02:02:50.255Z,4.00
2019-06-20T02:03:50.243Z,4.00
2019-06-20T02:04:50.242Z,4.00
2019-06-20T02:05:50.222Z,4.00
2019-06-20T02:06:50.267Z,4.00
2019-06-20T02:08:50.193Z,4.00
2019-06-20T02:09:50.182Z,4.00
2019-06-20T02:10:50.178Z,4.00
2019-06-20T02:11:50.159Z,4.00
2019-06-20T02:12:50.163Z,8.00
2019-06-20T02:14:03.574Z,8.00
2019-06-20T02:15:14.603Z,8.00
2019-06-20T02:16:14.597Z,8.00
2019-06-20T02:17:14.580Z,12.00
2019-06-20T02:18:14.569Z,8.00
2019-06-20T02:19:14.570Z,12.00
2019-06-20T02:20:14.556Z,12.00
2019-06-20T02:21:14.545Z,12.00
2019-06-20T02:22:14.526Z,16.00
2019-06-20T02:23:14.519Z,16.00
2019-06-20T02:24:14.516Z,16.00
2019-06-20T02:25:14.530Z,20.00
2019-06-20T02:26:14.496Z,20.00
2019-06-20T02:27:14.543Z,28.00
2019-06-20T02:28:14.460Z,28.00
2019-06-20T02:29:14.447Z,32.00
2019-06-20T02:30:14.444Z,36.00
2019-06-20T02:31:14.426Z,40.00
2019-06-20T02:32:14.415Z,44.00
2019-06-20T02:33:14.412Z,48.00
2019-06-20T02:34:14.394Z,52.00
2019-06-20T02:35:14.380Z,56.00
2019-06-20T02:36:14.371Z,64.00
2019-06-20T02:37:14.359Z,68.00
2019-06-20T02:38:14.351Z,76.00
2019-06-20T02:39:14.343Z,80.00
2019-06-20T02:40:14.339Z,88.00
2019-06-20T02:41:14.323Z,96.00
2019-06-20T02:42:14.305Z,104.00
2019-06-20T02:43:14.296Z,108.00
2019-06-20T02:44:28.970Z,116.00
2019-06-20T02:45:38.763Z,128.00
2019-06-20T02:46:38.739Z,136.00
2019-06-20T02:47:38.726Z,148.00
2019-06-20T02:48:38.717Z,152.00
2019-06-20T02:49:38.708Z,164.00
2019-06-20T02:50:38.693Z,172.00
2019-06-20T02:51:38.682Z,180.00
2019-06-20T02:52:38.669Z,196.00
2019-06-20T02:53:38.661Z,204.00
2019-06-20T02:54:38.654Z,212.00
2019-06-20T02:55:38.638Z,228.00
2019-06-20T02:56:38.631Z,236.00
2019-06-20T02:57:38.623Z,252.00
2019-06-20T02:58:38.606Z,268.00
2019-06-20T02:59:38.596Z,280.00
2019-06-20T03:00:38.588Z,292.00
2019-06-20T03:01:38.574Z,308.00
2019-06-20T03:02:38.561Z,320.00
2019-06-20T03:03:38.553Z,336.00
2019-06-20T03:04:38.542Z,352.00
2019-06-20T03:05:38.529Z,368.00
2019-06-20T03:06:38.515Z,388.00
2019-06-20T03:07:38.518Z,404.00
2019-06-20T03:08:38.495Z,420.00
2019-06-20T03:09:38.483Z,436.00
2019-06-20T03:10:38.470Z,456.00
2019-06-20T03:11:38.464Z,472.00
2019-06-20T03:12:38.448Z,488.00
2019-06-20T03:13:38.437Z,508.00
2019-06-20T03:14:45.355Z,532.00
2019-06-20T03:16:02.891Z,572.00
2019-06-20T03:17:02.881Z,604.00
2019-06-20T03:18:02.872Z,640.00
2019-06-20T03:19:02.867Z,664.00
2019-06-20T03:20:02.860Z,688.00
2019-06-20T03:21:02.836Z,688.00
2019-06-20T03:22:02.830Z,656.00
2019-06-20T03:23:02.867Z,620.00
2019-06-20T03:24:02.802Z,616.00
2019-06-20T03:25:02.794Z,632.00
2019-06-20T03:26:02.781Z,664.00
2019-06-20T03:27:02.770Z,700.00
2019-06-20T03:28:02.759Z,712.00
2019-06-20T03:29:02.753Z,720.00
2019-06-20T03:30:02.748Z,724.00
2019-06-20T03:31:02.752Z,724.00
2019-06-20T03:32:02.720Z,700.00
2019-06-20T03:33:02.711Z,680.00
2019-06-20T03:34:02.696Z,684.00
2019-06-20T03:35:02.682Z,696.00
2019-06-20T03:36:02.671Z,720.00
2019-06-20T03:37:02.660Z,740.00
2019-06-20T03:38:02.703Z,768.00
2019-06-20T03:39:02.635Z,796.00
2019-06-20T03:40:02.629Z,828.00
2019-06-20T03:41:02.636Z,868.00
2019-06-20T03:42:02.607Z,900.00
2019-06-20T03:43:02.599Z,936.00
2019-06-20T03:44:02.586Z,972.00
2019-06-20T03:45:02.820Z,1008.00
2019-06-20T03:46:02.600Z,1052.00
2019-06-20T03:47:02.594Z,1100.00
2019-06-20T03:48:02.538Z,1148.00
2019-06-20T03:49:02.542Z,1196.00
2019-06-20T03:50:02.543Z,1252.00
2019-06-20T03:51:02.554Z,1300.00
2019-06-20T03:52:02.494Z,1344.00
2019-06-20T03:53:02.493Z,1384.00
2019-06-20T03:54:02.475Z,1420.00
2019-06-20T03:55:02.474Z,1464.00
2019-06-20T03:56:02.455Z,1540.00
2019-06-20T03:57:02.444Z,1832.00
2019-06-20T03:58:02.427Z,2148.00
2019-06-20T03:59:02.414Z,2252.00
2019-06-20T04:00:02.727Z,2324.00
2019-06-20T04:01:02.407Z,2376.00
2019-06-20T04:02:02.387Z,2408.00
2019-06-20T04:03:02.373Z,2488.00
2019-06-20T04:04:02.360Z,2556.00
2019-06-20T04:05:02.347Z,2592.00
2019-06-20T04:06:02.349Z,2612.00
2019-06-20T04:07:02.329Z,2388.00
2019-06-20T04:08:02.314Z,2036.00
2019-06-20T04:09:02.306Z,1920.00
2019-06-20T04:10:02.294Z,1956.00
2019-06-20T04:11:02.281Z,1980.00
2019-06-20T04:12:02.273Z,2008.00
2019-06-20T04:13:02.258Z,2032.00
2019-06-20T04:14:02.250Z,2060.00
2019-06-20T04:15:15.028Z,2076.00
2019-06-20T04:16:26.705Z,2112.00
2019-06-20T04:17:26.690Z,2136.00
2019-06-20T04:18:26.682Z,2160.00
2019-06-20T04:19:26.668Z,2176.00
2019-06-20T04:20:26.661Z,2192.00
2019-06-20T04:21:26.651Z,2224.00
2019-06-20T04:22:26.635Z,2248.00
2019-06-20T04:23:26.625Z,2284.00
2019-06-20T04:24:28.036Z,2356.00
2019-06-20T04:25:26.601Z,2940.00
2019-06-20T04:26:26.591Z,3356.00
2019-06-20T04:27:26.579Z,3276.00
2019-06-20T04:28:26.578Z,4036.00
2019-06-20T04:29:26.570Z,4504.00
2019-06-20T04:30:26.546Z,4720.00
2019-06-20T04:31:26.540Z,4984.00
2019-06-20T04:32:26.524Z,5152.00
2019-06-20T04:33:26.514Z,5016.00
2019-06-20T04:34:26.503Z,5320.00
2019-06-20T04:35:26.492Z,5416.00
2019-06-20T04:36:26.490Z,5624.00
2019-06-20T04:37:26.472Z,5828.00
2019-06-20T04:38:26.461Z,6104.00
2019-06-20T04:39:26.454Z,6228.00
2019-06-20T04:40:26.445Z,6288.00
2019-06-20T04:41:26.431Z,6548.00
2019-06-20T04:42:26.427Z,6840.00
2019-06-20T04:43:26.405Z,6984.00
2019-06-20T04:44:26.402Z,7204.00
2019-06-20T04:45:34.996Z,7316.00
2019-06-20T04:46:27.397Z,7216.00
2019-06-20T04:47:26.363Z,7240.00
2019-06-20T04:48:26.359Z,6988.00
2019-06-20T04:49:26.342Z,5420.00
2019-06-20T04:50:26.329Z,3904.00
2019-06-20T04:51:26.328Z,3680.00
2019-06-20T04:52:26.310Z,3804.00
2019-06-20T04:53:26.298Z,3960.00
2019-06-20T04:54:26.284Z,4168.00
2019-06-20T04:55:26.283Z,4420.00
2019-06-20T04:56:26.263Z,4640.00
2019-06-20T04:57:26.252Z,5232.00
2019-06-20T04:58:26.250Z,7312.00
2019-06-20T04:59:26.236Z,8836.00
2019-06-20T05:00:26.219Z,9168.00
2019-06-20T05:01:26.208Z,9176.00
2019-06-20T05:02:26.197Z,9548.00
2019-06-20T05:03:26.187Z,9268.00
2019-06-20T05:04:26.176Z,8112.00
2019-06-20T05:05:26.166Z,6288.00
2019-06-20T05:06:26.159Z,8924.00
2019-06-20T05:07:26.145Z,10276.00
2019-06-20T05:08:26.139Z,10808.00
2019-06-20T05:09:26.129Z,11476.00
2019-06-20T05:10:26.109Z,12264.00
2019-06-20T05:11:26.099Z,12876.00
2019-06-20T05:12:26.088Z,12896.00
2019-06-20T05:13:26.083Z,12936.00
2019-06-20T05:14:26.064Z,13308.00
2019-06-20T05:15:26.055Z,13376.00
2019-06-20T05:16:26.052Z,12588.00
2019-06-20T05:17:26.035Z,11664.00
2019-06-20T05:18:26.023Z,10188.00
2019-06-20T05:19:26.013Z,11124.00
2019-06-20T05:20:26.001Z,11228.00
2019-06-20T05:21:25.991Z,6348.00
2019-06-20T05:22:25.983Z,6252.00
2019-06-20T05:23:25.970Z,6280.00
2019-06-20T05:24:25.959Z,8456.00
2019-06-20T05:25:25.948Z,10404.00
2019-06-20T05:26:25.937Z,6416.00
2019-06-20T05:27:25.927Z,7328.00
2019-06-20T05:28:25.936Z,6280.00
2019-06-20T05:29:25.922Z,6224.00
2019-06-20T05:30:25.895Z,6224.00
2019-06-20T05:31:25.895Z,6276.00
2019-06-20T05:32:25.882Z,6428.00
2019-06-20T05:33:25.859Z,6720.00
2019-06-20T05:34:25.854Z,8384.00
2019-06-20T05:35:25.838Z,9280.00
2019-06-20T05:36:25.831Z,10248.00
2019-06-20T05:37:25.817Z,11280.00
2019-06-20T05:38:25.810Z,10820.00
2019-06-20T05:39:25.797Z,11964.00
2019-06-20T05:40:25.785Z,11928.00
2019-06-20T05:41:25.776Z,9896.00
2019-06-20T05:42:25.771Z,11380.00
2019-06-20T05:43:25.753Z,10748.00
2019-06-20T05:44:25.756Z,10408.00
2019-06-20T05:45:25.816Z,7836.00
2019-06-20T05:46:25.728Z,8720.00
2019-06-20T05:47:25.712Z,7812.00
2019-06-20T05:48:25.700Z,6116.00
2019-06-20T05:49:25.690Z,6220.00
2019-06-20T05:50:25.678Z,5156.00
2019-06-20T05:51:25.670Z,4660.00
2019-06-20T05:52:25.657Z,4384.00
2019-06-20T05:53:25.646Z,4184.00
2019-06-20T05:54:25.636Z,4076.00
2019-06-20T05:55:25.624Z,4084.00
2019-06-20T05:56:26.058Z,4188.00
2019-06-20T05:57:25.603Z,4804.00
2019-06-20T05:58:25.591Z,5288.00
2019-06-20T05:59:25.772Z,5812.00
2019-06-20T06:00:25.570Z,5004.00
2019-06-20T06:01:26.423Z,5120.00
2019-06-20T06:02:25.553Z,5212.00
2019-06-20T06:03:25.539Z,6144.00
2019-06-20T06:04:25.530Z,6192.00
2019-06-20T06:05:25.519Z,6052.00
2019-06-20T06:06:25.513Z,5864.00
2019-06-20T06:07:25.497Z,5612.00
2019-06-20T06:08:25.487Z,5344.00
2019-06-20T06:09:25.472Z,5000.00
2019-06-20T06:10:25.463Z,4704.00
2019-06-20T06:11:25.450Z,4736.00
2019-06-20T06:12:25.443Z,4668.00
2019-06-20T06:13:25.431Z,4452.00
2019-06-20T06:14:25.421Z,4308.00
2019-06-20T06:15:25.411Z,4276.00
2019-06-20T06:16:28.195Z,4408.00
2019-06-20T06:17:25.389Z,3884.00
2019-06-20T06:18:25.376Z,3468.00
2019-06-20T06:19:25.370Z,3140.00
2019-06-20T06:20:25.355Z,2864.00
2019-06-20T06:21:25.341Z,2664.00
2019-06-20T06:22:25.337Z,2488.00
2019-06-20T06:23:25.325Z,2344.00
2019-06-20T06:24:25.354Z,2240.00
2019-06-20T06:25:25.317Z,2144.00
2019-06-20T06:26:25.292Z,2060.00
2019-06-20T06:27:25.276Z,1964.00
2019-06-20T06:28:25.267Z,1872.00
2019-06-20T06:29:25.283Z,1800.00
2019-06-20T06:30:25.248Z,1760.00
2019-06-20T06:31:25.233Z,1744.00
2019-06-20T06:32:39.263Z,1696.00
2019-06-20T06:33:49.693Z,1468.00
2019-06-20T06:34:49.672Z,1704.00
2019-06-20T06:35:49.662Z,1772.00
2019-06-20T06:36:49.717Z,1856.00
2019-06-20T06:37:49.644Z,1916.00
2019-06-20T06:38:49.628Z,1980.00
2019-06-20T06:39:49.617Z,2056.00
2019-06-20T06:40:49.606Z,2164.00
2019-06-20T06:41:49.691Z,2328.00
2019-06-20T06:42:49.584Z,2444.00
2019-06-20T06:43:49.575Z,2652.00
2019-06-20T06:44:49.563Z,2984.00
2019-06-20T06:45:49.553Z,3504.00
2019-06-20T06:46:55.379Z,4120.00
2019-06-20T06:48:14.003Z,4948.00
2019-06-20T06:49:14.014Z,5396.00
2019-06-20T06:50:13.980Z,5656.00
2019-06-20T06:51:13.967Z,5764.00
2019-06-20T06:52:13.956Z,5828.00
2019-06-20T06:53:13.951Z,5900.00
2019-06-20T06:54:13.940Z,6004.00
2019-06-20T06:55:13.928Z,6056.00
2019-06-20T06:56:13.917Z,6176.00
2019-06-20T06:57:13.901Z,6100.00
2019-06-20T06:58:13.913Z,5864.00
2019-06-20T06:59:13.877Z,5736.00
2019-06-20T07:00:13.866Z,5628.00
2019-06-20T07:01:13.862Z,5600.00
2019-06-20T07:02:13.846Z,5696.00
2019-06-20T07:03:13.833Z,5888.00
2019-06-20T07:04:13.827Z,6112.00
2019-06-20T07:05:13.809Z,6344.00
2019-06-20T07:06:13.811Z,6688.00
2019-06-20T07:07:13.788Z,7144.00
2019-06-20T07:08:13.784Z,7828.00
2019-06-20T07:09:13.766Z,8780.00
2019-06-20T07:10:13.755Z,9844.00
2019-06-20T07:11:13.783Z,11036.00
2019-06-20T07:12:13.733Z,16060.00
2019-06-20T07:13:13.721Z,23648.00
2019-06-20T07:14:13.714Z,15460.00
2019-06-20T07:15:13.700Z,12824.00
2019-06-20T07:16:13.701Z,15120.00
2019-06-20T07:17:13.680Z,15420.00
2019-06-20T07:18:13.666Z,14792.00
2019-06-20T07:19:13.655Z,12048.00
2019-06-20T07:20:15.318Z,11268.00
2019-06-20T07:21:13.634Z,14164.00
2019-06-20T07:22:13.621Z,12988.00
2019-06-20T07:23:13.610Z,12292.00
2019-06-20T07:24:13.605Z,9348.00
2019-06-20T07:25:13.592Z,9756.00
2019-06-20T07:26:13.582Z,8600.00
2019-06-20T07:27:13.568Z,8648.00
2019-06-20T07:28:13.565Z,8756.00
2019-06-20T07:29:13.543Z,9060.00
2019-06-20T07:30:13.534Z,9316.00
2019-06-20T07:31:13.529Z,9720.00
2019-06-20T07:32:13.515Z,10324.00
2019-06-20T07:33:13.499Z,11024.00
2019-06-20T07:34:13.489Z,11564.00
2019-06-20T07:35:13.481Z,11624.00
2019-06-20T07:36:13.469Z,10484.00
2019-06-20T07:37:13.489Z,9924.00
2019-06-20T07:38:13.448Z,9452.00
2019-06-20T07:39:13.438Z,8592.00
2019-06-20T07:40:13.424Z,7096.00
2019-06-20T07:41:13.414Z,5736.00
2019-06-20T07:42:13.400Z,4860.00
2019-06-20T07:43:13.402Z,4500.00
2019-06-20T07:44:13.404Z,4304.00
2019-06-20T07:45:13.405Z,4068.00
2019-06-20T07:46:13.359Z,3784.00
2019-06-20T07:47:17.736Z,3480.00
2019-06-20T07:48:13.356Z,3148.00
2019-06-20T07:49:13.358Z,2832.00
2019-06-20T07:50:13.361Z,2592.00
2019-06-20T07:51:13.311Z,2436.00
2019-06-20T07:52:13.290Z,2340.00
2019-06-20T07:53:13.279Z,2264.00
2019-06-20T07:54:13.267Z,2212.00
2019-06-20T07:55:13.256Z,2244.00
2019-06-20T07:56:13.246Z,2404.00
2019-06-20T07:57:13.237Z,2672.00
2019-06-20T07:58:13.226Z,2980.00
2019-06-20T07:59:13.211Z,3316.00
2019-06-20T08:00:13.200Z,3736.00
2019-06-20T08:01:13.197Z,4320.00
2019-06-20T08:02:13.185Z,5064.00
2019-06-20T08:03:13.184Z,5788.00
2019-06-20T08:04:13.159Z,6336.00
2019-06-20T08:05:13.147Z,6564.00
2019-06-20T08:06:13.173Z,6424.00
2019-06-20T08:07:13.122Z,5984.00
2019-06-20T08:08:13.110Z,5568.00
2019-06-20T08:09:13.108Z,5244.00
2019-06-20T08:10:13.093Z,5008.00
2019-06-20T08:11:13.078Z,4736.00
2019-06-20T08:12:13.108Z,4444.00
2019-06-20T08:13:13.052Z,4192.00
2019-06-20T08:14:13.052Z,4044.00
2019-06-20T08:15:15.651Z,4132.00
2019-06-20T08:16:13.018Z,4412.00
2019-06-20T08:17:13.011Z,4784.00
2019-06-20T08:18:13.008Z,5144.00
2019-06-20T08:19:12.990Z,5372.00
2019-06-20T08:20:12.974Z,5496.00
2019-06-20T08:21:12.962Z,5812.00
2019-06-20T08:22:12.970Z,6380.00
2019-06-20T08:23:12.940Z,6944.00
2019-06-20T08:24:12.933Z,7688.00
2019-06-20T08:25:12.922Z,9128.00
2019-06-20T08:26:12.906Z,12388.00
2019-06-20T08:27:14.943Z,14008.00
2019-06-20T08:28:12.888Z,27296.00
2019-06-20T08:29:20.710Z,28992.00
2019-06-20T08:30:37.340Z,21600.00
2019-06-20T08:31:37.331Z,17620.00
2019-06-20T08:32:37.316Z,15984.00
2019-06-20T08:33:37.312Z,12820.00
2019-06-20T08:34:37.292Z,10692.00
2019-06-20T08:35:37.297Z,9328.00
2019-06-20T08:36:37.281Z,9056.00
2019-06-20T08:37:37.265Z,10320.00
2019-06-20T08:38:37.255Z,13464.00
2019-06-20T08:39:37.248Z,21152.00
2019-06-20T08:40:37.228Z,61856.00
2019-06-20T08:41:37.221Z,48576.00
2019-06-20T08:42:37.209Z,71744.00
2019-06-20T08:43:37.195Z,68864.00
2019-06-20T08:44:37.193Z,69664.00
2019-06-20T08:45:37.181Z,39104.00
2019-06-20T08:46:37.164Z,29536.00
2019-06-20T08:47:37.154Z,44736.00
2019-06-20T08:48:37.140Z,60352.00
2019-06-20T08:49:37.132Z,39488.00
2019-06-20T08:50:37.123Z,25600.00
2019-06-20T08:51:37.152Z,79744.00
2019-06-20T08:52:37.100Z,79232.00
2019-06-20T08:53:37.087Z,28096.00
2019-06-20T08:54:37.086Z,34240.00
2019-06-20T08:55:37.067Z,25600.00
2019-06-20T08:56:37.079Z,20320.00
2019-06-20T08:57:37.044Z,19776.00
2019-06-20T08:58:37.031Z,24288.00
2019-06-20T08:59:37.029Z,13136.00
2019-06-20T09:00:37.172Z,13168.00
2019-06-20T09:01:37.001Z,13392.00
2019-06-20T09:02:37.029Z,38400.00
2019-06-20T09:03:36.982Z,61152.00
2019-06-20T09:04:36.983Z,66336.00
2019-06-20T09:05:36.966Z,14952.00
2019-06-20T09:06:36.951Z,10928.00
2019-06-20T09:07:36.935Z,8880.00
2019-06-20T09:08:36.923Z,7988.00
2019-06-20T09:09:36.912Z,7400.00
2019-06-20T09:10:36.939Z,6996.00
2019-06-20T09:11:36.895Z,6756.00
2019-06-20T09:12:36.880Z,6468.00
2019-06-20T09:13:36.889Z,6164.00
2019-06-20T09:14:36.863Z,5668.00
2019-06-20T09:15:36.874Z,5028.00
2019-06-20T09:16:36.843Z,4540.00
2019-06-20T09:17:36.826Z,4216.00
2019-06-20T09:18:36.816Z,3876.00
2019-06-20T09:19:36.807Z,3472.00
2019-06-20T09:20:36.796Z,3180.00
2019-06-20T09:21:36.781Z,3172.00
2019-06-20T09:22:36.773Z,3408.00
2019-06-20T09:23:36.760Z,3724.00
2019-06-20T09:24:36.751Z,3992.00
2019-06-20T09:25:36.739Z,4248.00
2019-06-20T09:26:36.728Z,4644.00
2019-06-20T09:27:36.716Z,5544.00
2019-06-20T09:28:36.711Z,6812.00
2019-06-20T09:29:41.759Z,7932.00
2019-06-20T09:30:36.798Z,8520.00
2019-06-20T09:31:36.675Z,9212.00
2019-06-20T09:32:36.729Z,9012.00
2019-06-20T09:33:36.650Z,8532.00
2019-06-20T09:34:36.641Z,8404.00
2019-06-20T09:35:36.627Z,35424.00
2019-06-20T09:36:36.645Z,7592.00
2019-06-20T09:37:36.608Z,6800.00
2019-06-20T09:38:36.594Z,6348.00
2019-06-20T09:39:36.584Z,6360.00
2019-06-20T09:40:36.573Z,6520.00
2019-06-20T09:41:36.569Z,6896.00
2019-06-20T09:42:36.963Z,7960.00
2019-06-20T09:43:36.538Z,9624.00
2019-06-20T09:44:36.531Z,12680.00
2019-06-20T09:45:36.515Z,50912.00
2019-06-20T09:46:36.506Z,61952.00
2019-06-20T09:47:36.494Z,51456.00
2019-06-20T09:48:36.483Z,15448.00
2019-06-20T09:49:36.477Z,12996.00
2019-06-20T09:50:36.465Z,12792.00
2019-06-20T09:51:36.460Z,11664.00
2019-06-20T09:52:36.446Z,12228.00
2019-06-20T09:53:36.434Z,13384.00
2019-06-20T09:54:36.425Z,14480.00
2019-06-20T09:55:36.407Z,15852.00
2019-06-20T09:56:36.404Z,16040.00
2019-06-20T09:57:36.387Z,14744.00
2019-06-20T09:58:36.374Z,14616.00
2019-06-20T09:59:36.370Z,15316.00
2019-06-20T10:00:36.360Z,16176.00
2019-06-20T10:01:36.357Z,16952.00
2019-06-20T10:02:36.335Z,25728.00
2019-06-20T10:03:36.322Z,16280.00
2019-06-20T10:04:36.315Z,15240.00
2019-06-20T10:05:36.302Z,14816.00
2019-06-20T10:06:36.288Z,17580.00
2019-06-20T10:07:36.287Z,42336.00
2019-06-20T10:08:36.277Z,19400.00
2019-06-20T10:09:36.269Z,19072.00
2019-06-20T10:10:36.248Z,22496.00
2019-06-20T10:11:36.235Z,28224.00
2019-06-20T10:12:36.226Z,20800.00
2019-06-20T10:13:36.213Z,24000.00
2019-06-20T10:14:36.201Z,20608.00
2019-06-20T10:15:36.192Z,19500.00
2019-06-20T10:16:45.359Z,18728.00
2019-06-20T10:17:37.202Z,17636.00
2019-06-20T10:18:36.177Z,18604.00
2019-06-20T10:19:36.148Z,21952.00
2019-06-20T10:20:38.817Z,24512.00
2019-06-20T10:21:36.131Z,34912.00
2019-06-20T10:22:36.116Z,33952.00
2019-06-20T10:23:36.111Z,45312.00
2019-06-20T10:24:36.095Z,69216.00
2019-06-20T10:25:36.086Z,68320.00
2019-06-20T10:26:37.778Z,68960.00
2019-06-20T10:27:36.062Z,70368.00
2019-06-20T10:28:36.052Z,70080.00
2019-06-20T10:29:36.041Z,65792.00
2019-06-20T10:30:36.031Z,66624.00
2019-06-20T10:31:36.020Z,62496.00
2019-06-20T10:32:36.007Z,45696.00
2019-06-20T10:33:36.002Z,56064.00
2019-06-20T10:34:35.990Z,55936.00
2019-06-20T10:35:35.980Z,58240.00
2019-06-20T10:36:35.969Z,61920.00
2019-06-20T10:37:35.954Z,61664.00
2019-06-20T10:38:35.946Z,60864.00
2019-06-20T10:39:35.938Z,44096.00
2019-06-20T10:40:35.925Z,56608.00
2019-06-20T10:41:35.914Z,19180.00
2019-06-20T10:42:35.902Z,59296.00
2019-06-20T10:43:35.897Z,59328.00
2019-06-20T10:44:35.883Z,61632.00
2019-06-20T10:45:35.875Z,16672.00
2019-06-20T10:46:35.909Z,13292.00
2019-06-20T10:47:36.210Z,13752.00
2019-06-20T10:48:35.841Z,17524.00
2019-06-20T10:49:35.830Z,14232.00
2019-06-20T10:50:35.826Z,13544.00
2019-06-20T10:51:35.807Z,14000.00
2019-06-20T10:52:35.797Z,16184.00
2019-06-20T10:53:35.787Z,16276.00
2019-06-20T10:54:35.779Z,16248.00
2019-06-20T10:55:35.771Z,15376.00
2019-06-20T10:56:35.756Z,14944.00
2019-06-20T10:57:35.743Z,15052.00
2019-06-20T10:58:35.735Z,15448.00
2019-06-20T10:59:35.723Z,15408.00
2019-06-20T11:00:35.741Z,15700.00
2019-06-20T11:01:35.701Z,15808.00
2019-06-20T11:02:35.693Z,18996.00
2019-06-20T11:03:35.693Z,17880.00
2019-06-20T11:04:35.782Z,19968.00
2019-06-20T11:05:35.657Z,31520.00
2019-06-20T11:06:35.677Z,26144.00
2019-06-20T11:07:35.651Z,34688.00
2019-06-20T11:08:35.628Z,53280.00
2019-06-20T11:09:35.619Z,62656.00
2019-06-20T11:10:35.609Z,53568.00
2019-06-20T11:11:35.650Z,51456.00
2019-06-20T11:12:45.580Z,49920.00
2019-06-20T11:14:00.057Z,51104.00
2019-06-20T11:15:00.042Z,49344.00
2019-06-20T11:16:00.027Z,48384.00
2019-06-20T11:17:00.024Z,42784.00
2019-06-20T11:18:00.007Z,46336.00
2019-06-20T11:19:00.001Z,49728.00
2019-06-20T11:20:00.002Z,45792.00
2019-06-20T11:20:59.976Z,41440.00
2019-06-20T11:21:59.968Z,41792.00
2019-06-20T11:22:59.955Z,35072.00
2019-06-20T11:23:59.963Z,39520.00
2019-06-20T11:24:59.936Z,45984.00
2019-06-20T11:25:59.933Z,42848.00
2019-06-20T11:26:59.918Z,38752.00
2019-06-20T11:27:59.905Z,36160.00
2019-06-20T11:28:59.896Z,37312.00
2019-06-20T11:29:59.892Z,39584.00
2019-06-20T11:31:00.782Z,41280.00
2019-06-20T11:31:59.871Z,41184.00
2019-06-20T11:32:59.855Z,39520.00
2019-06-20T11:33:59.846Z,37280.00
2019-06-20T11:34:59.847Z,37280.00
2019-06-20T11:35:59.827Z,39776.00
2019-06-20T11:36:59.812Z,44960.00
2019-06-20T11:37:59.802Z,46528.00
2019-06-20T11:38:59.850Z,44672.00
2019-06-20T11:39:59.781Z,42720.00
2019-06-20T11:40:59.773Z,40640.00
2019-06-20T11:41:59.766Z,38016.00
2019-06-20T11:42:59.750Z,39200.00
2019-06-20T11:43:59.740Z,42528.00
2019-06-20T11:44:59.730Z,38880.00
2019-06-20T11:45:59.726Z,32448.00
2019-06-20T11:46:59.709Z,37536.00
2019-06-20T11:47:59.698Z,36128.00
2019-06-20T11:48:59.695Z,33472.00
2019-06-20T11:49:59.696Z,31968.00
2019-06-20T11:50:59.681Z,29376.00
2019-06-20T11:51:59.657Z,9812.00
2019-06-20T11:52:59.651Z,8644.00
2019-06-20T11:53:59.643Z,8220.00
2019-06-20T11:54:59.634Z,8944.00
2019-06-20T11:55:59.620Z,10192.00
2019-06-20T11:56:59.606Z,9576.00
2019-06-20T11:57:59.607Z,9540.00
2019-06-20T11:58:59.588Z,9532.00
2019-06-20T11:59:59.582Z,18756.00
2019-06-20T12:01:03.920Z,18028.00
2019-06-20T12:01:59.560Z,18964.00
2019-06-20T12:02:59.542Z,13388.00
2019-06-20T12:03:59.551Z,13936.00
2019-06-20T12:04:59.521Z,13376.00
2019-06-20T12:05:59.526Z,14212.00
2019-06-20T12:06:59.499Z,15120.00
2019-06-20T12:07:59.494Z,16620.00
2019-06-20T12:08:59.484Z,19208.00
2019-06-20T12:09:59.478Z,18188.00
2019-06-20T12:10:59.461Z,16284.00
2019-06-20T12:11:59.451Z,13644.00
2019-06-20T12:12:59.440Z,12564.00
2019-06-20T12:13:59.431Z,11640.00
2019-06-20T12:14:59.424Z,11420.00
2019-06-20T12:15:59.409Z,11992.00
2019-06-20T12:16:59.399Z,12320.00
2019-06-20T12:17:59.392Z,16720.00
2019-06-20T12:18:59.388Z,22912.00
2019-06-20T12:19:59.367Z,29504.00
2019-06-20T12:20:59.433Z,29664.00
2019-06-20T12:21:59.351Z,29024.00
2019-06-20T12:22:59.344Z,29632.00
2019-06-20T12:23:59.343Z,28640.00
2019-06-20T12:24:59.361Z,27552.00
2019-06-20T12:25:59.363Z,24992.00
2019-06-20T12:26:59.295Z,25248.00
2019-06-20T12:27:59.297Z,26272.00
2019-06-20T12:28:59.323Z,25376.00
2019-06-20T12:29:59.305Z,24704.00
2019-06-20T12:30:59.250Z,22976.00
2019-06-20T12:31:59.242Z,19608.00
2019-06-20T12:32:59.230Z,18400.00
2019-06-20T12:33:59.216Z,17452.00
2019-06-20T12:34:59.211Z,17200.00
2019-06-20T12:35:59.196Z,15952.00
2019-06-20T12:36:59.185Z,14960.00
2019-06-20T12:37:59.177Z,10200.00
2019-06-20T12:38:59.170Z,8304.00
2019-06-20T12:39:59.154Z,8972.00
2019-06-20T12:40:59.152Z,8112.00
2019-06-20T12:41:59.146Z,7148.00
2019-06-20T12:43:59.113Z,8636.00
2019-06-20T12:44:59.103Z,8892.00
2019-06-20T12:45:59.117Z,9328.00
2019-06-20T12:46:59.084Z,9760.00
2019-06-20T12:47:59.076Z,10112.00
2019-06-20T12:48:59.072Z,10336.00
2019-06-20T12:49:59.056Z,10628.00
2019-06-20T12:50:59.046Z,10332.00
2019-06-20T12:51:59.031Z,10556.00
2019-06-20T12:52:59.020Z,10332.00
2019-06-20T12:53:59.020Z,9900.00
2019-06-20T12:54:59.004Z,8624.00
2019-06-20T12:55:58.992Z,7336.00
2019-06-20T12:56:58.980Z,6640.00
2019-06-20T12:57:58.974Z,6444.00
2019-06-20T12:58:58.966Z,6356.00
2019-06-20T12:59:58.955Z,5960.00
2019-06-20T13:00:58.946Z,5804.00
2019-06-20T13:01:58.946Z,5568.00
2019-06-20T13:02:58.923Z,5188.00
2019-06-20T13:03:58.923Z,4936.00
2019-06-20T13:04:58.904Z,4836.00
2019-06-20T13:05:58.899Z,5032.00
2019-06-20T13:06:58.885Z,5528.00
2019-06-20T13:07:58.988Z,5952.00
2019-06-20T13:08:58.855Z,6252.00
2019-06-20T13:09:58.846Z,6760.00
2019-06-20T13:10:58.835Z,7128.00
2019-06-20T13:11:58.825Z,7276.00
2019-06-20T13:12:58.821Z,7508.00
2019-06-20T13:13:58.802Z,7764.00
2019-06-20T13:14:58.793Z,8084.00
2019-06-20T13:15:58.785Z,8188.00
2019-06-20T13:16:58.771Z,8664.00
2019-06-20T13:17:58.762Z,9036.00
2019-06-20T13:18:58.757Z,8948.00
2019-06-20T13:19:58.785Z,8852.00
2019-06-20T13:20:58.728Z,8816.00
2019-06-20T13:21:58.720Z,8324.00
2019-06-20T13:22:58.728Z,7836.00
2019-06-20T13:23:58.698Z,7316.00
2019-06-20T13:24:58.689Z,6804.00
2019-06-20T13:25:58.677Z,6348.00
2019-06-20T13:26:58.669Z,6156.00
2019-06-20T13:27:58.657Z,6184.00
2019-06-20T13:29:03.983Z,6292.00
2019-06-20T13:30:23.124Z,6388.00
2019-06-20T13:31:23.101Z,6280.00
2019-06-20T13:32:23.092Z,6088.00
2019-06-20T13:33:23.150Z,5908.00
2019-06-20T13:34:23.079Z,5744.00
2019-06-20T13:35:23.058Z,5620.00
2019-06-20T13:36:23.052Z,5588.00
2019-06-20T13:37:23.035Z,5504.00
2019-06-20T13:38:23.026Z,5352.00
2019-06-20T13:39:23.015Z,5232.00
2019-06-20T13:40:23.006Z,5372.00
2019-06-20T13:41:22.993Z,5512.00
2019-06-20T13:42:22.985Z,5412.00
2019-06-20T13:43:22.972Z,5188.00
2019-06-20T13:44:23.916Z,4928.00
2019-06-20T13:45:22.954Z,4696.00
2019-06-20T13:46:22.952Z,4508.00
2019-06-20T13:47:22.931Z,4308.00
2019-06-20T13:48:22.916Z,4052.00
2019-06-20T13:49:22.905Z,3796.00
2019-06-20T13:50:22.894Z,3488.00
2019-06-20T13:51:22.888Z,3120.00
2019-06-20T13:52:22.884Z,2780.00
2019-06-20T13:53:22.863Z,2504.00
2019-06-20T13:54:22.858Z,2264.00
2019-06-20T13:55:22.840Z,2080.00
2019-06-20T13:56:22.832Z,1964.00
2019-06-20T13:57:22.825Z,1884.00
2019-06-20T13:58:22.819Z,1828.00
2019-06-20T13:59:22.801Z,1812.00
2019-06-20T14:00:22.788Z,1812.00
2019-06-20T14:01:22.780Z,1836.00
2019-06-20T14:02:22.763Z,1876.00
2019-06-20T14:03:22.761Z,1924.00
2019-06-20T14:04:22.748Z,1956.00
2019-06-20T14:05:22.740Z,1980.00
2019-06-20T14:06:22.720Z,2020.00
2019-06-20T14:07:22.709Z,2084.00
2019-06-20T14:08:22.721Z,2172.00